createdAt,value
2022-12-13T02:15:19.854Z,45.10
2022-12-13T02:16:28.877Z,37.90
2022-12-13T02:17:54.162Z,36.00
2022-12-13T02:19:20.470Z,41.90
2022-12-13T02:20:50.111Z,40.40
2022-12-13T02:23:30.344Z,29.00
2022-12-13T02:24:45.017Z,39.90
2022-12-13T02:26:13.451Z,32.70
2022-12-13T02:27:42.855Z,35.60
2022-12-13T02:29:07.882Z,37.50
2022-12-13T02:30:20.052Z,30.50
2022-12-13T02:31:31.981Z,37.30
2022-12-13T02:32:37.654Z,30.70
2022-12-13T02:33:49.400Z,34.50
2022-12-13T02:35:12.951Z,33.20
2022-12-13T02:36:28.372Z,32.30
2022-12-13T02:37:39.013Z,31.90
2022-12-13T02:38:47.830Z,31.20
2022-12-13T02:40:14.903Z,30.50
2022-12-13T02:41:29.514Z,29.90
2022-12-13T02:42:35.149Z,31.60
2022-12-13T02:43:45.677Z,30.50
2022-12-13T02:44:49.072Z,32.80
2022-12-13T02:45:54.650Z,30.30
2022-12-13T02:47:03.256Z,32.10
2022-12-13T02:48:10.021Z,28.10
2022-12-13T02:49:13.847Z,28.60
2022-12-13T02:50:16.212Z,27.80
2022-12-13T02:51:20.433Z,29.90
2022-12-13T02:52:25.923Z,32.60
2022-12-13T02:53:29.198Z,32.10
2022-12-13T02:54:33.157Z,30.70
2022-12-13T02:55:40.442Z,24.60
2022-12-13T02:56:44.516Z,28.70
2022-12-13T02:57:46.481Z,28.80
2022-12-13T02:58:51.891Z,28.56
2022-12-13T02:59:54.403Z,27.70
2022-12-13T03:01:28.950Z,29.60
2022-12-13T03:02:31.317Z,25.80
2022-12-13T03:03:54.727Z,30.50
2022-12-13T03:05:01.168Z,30.00
2022-12-13T03:06:36.255Z,29.90
2022-12-13T03:07:45.643Z,28.30
2022-12-13T03:08:57.598Z,28.20
2022-12-13T03:10:14.362Z,31.90
2022-12-13T03:11:19.408Z,27.50
2022-12-13T03:12:34.664Z,30.80
2022-12-13T03:13:56.701Z,32.00
2022-12-13T03:15:02.262Z,28.80
2022-12-13T03:16:11.404Z,28.80
2022-12-13T03:17:17.171Z,30.70
2022-12-13T03:18:21.699Z,27.50
2022-12-13T03:19:24.305Z,28.60
2022-12-13T03:20:29.198Z,29.10
2022-12-13T03:21:47.007Z,31.50
2022-12-13T03:22:43.994Z,27.10
2022-12-13T03:23:46.325Z,28.33
2022-12-13T03:24:49.395Z,29.80
2022-12-13T03:25:57.786Z,28.60
2022-12-13T03:27:00.182Z,30.50
2022-12-13T03:28:02.902Z,28.00
2022-12-13T03:29:05.685Z,31.09
2022-12-13T03:30:08.605Z,34.00
2022-12-13T03:31:10.641Z,34.30
2022-12-13T03:32:12.512Z,34.22
2022-12-13T03:33:14.362Z,34.00
2022-12-13T03:34:22.652Z,35.56
2022-12-13T03:35:21.881Z,34.70
2022-12-13T03:36:24.424Z,32.90
2022-12-13T03:37:27.123Z,32.30
2022-12-13T03:38:30.665Z,32.30
2022-12-13T03:39:32.722Z,30.40
2022-12-13T03:40:35.249Z,24.60
2022-12-13T03:41:37.557Z,29.50
2022-12-13T03:42:39.723Z,32.00
2022-12-13T03:43:42.340Z,31.00
2022-12-13T03:44:44.329Z,33.50
2022-12-13T03:45:45.985Z,33.22
2022-12-13T03:46:47.885Z,34.22
2022-12-13T03:47:49.672Z,30.78
2022-12-13T03:48:51.491Z,23.44
2022-12-13T03:49:54.149Z,33.00
2022-12-13T03:50:56.812Z,31.40
2022-12-13T03:51:59.026Z,30.10
2022-12-13T03:53:02.681Z,30.50
2022-12-13T03:54:04.711Z,31.70
2022-12-13T03:55:07.427Z,33.33
2022-12-13T03:56:09.777Z,31.10
2022-12-13T03:57:11.738Z,31.50
2022-12-13T03:58:15.574Z,35.33
2022-12-13T03:59:19.191Z,33.60
2022-12-13T04:00:21.777Z,31.10
2022-12-13T04:01:24.908Z,32.70
2022-12-13T04:02:31.024Z,32.80
2022-12-13T04:03:32.764Z,30.30
2022-12-13T04:04:35.627Z,29.80
2022-12-13T04:05:37.444Z,29.90
2022-12-13T04:06:39.275Z,30.11
2022-12-13T04:07:41.090Z,34.89
2022-12-13T04:08:45.187Z,30.30
2022-12-13T04:09:47.161Z,28.60
2022-12-13T04:10:49.066Z,30.50
2022-12-13T04:11:50.873Z,35.11
2022-12-13T04:12:53.712Z,34.11
2022-12-13T04:13:57.587Z,32.44
2022-12-13T04:14:59.228Z,30.00
2022-12-13T04:16:02.723Z,31.00
2022-12-13T04:17:05.034Z,32.20
2022-12-13T04:18:06.808Z,30.20
2022-12-13T04:19:08.676Z,33.33
2022-12-13T04:20:11.210Z,34.11
2022-12-13T04:21:13.009Z,30.50
2022-12-13T04:22:16.153Z,32.56
2022-12-13T04:23:18.597Z,35.40
2022-12-13T04:25:32.845Z,34.60
2022-12-13T04:26:34.635Z,30.80
2022-12-13T04:27:36.476Z,31.00
2022-12-13T04:28:38.444Z,32.89
2022-12-13T04:29:40.233Z,33.89
2022-12-13T04:30:42.113Z,31.89
2022-12-13T04:31:44.023Z,33.89
2022-12-13T04:32:46.143Z,32.40
2022-12-13T04:33:47.902Z,29.22
2022-12-13T04:34:49.829Z,30.44
2022-12-13T04:35:51.824Z,31.78
2022-12-13T04:36:53.981Z,33.10
2022-12-13T04:37:55.746Z,33.56
2022-12-13T04:39:00.670Z,32.00
2022-12-13T04:40:03.540Z,34.00
2022-12-13T04:41:12.407Z,34.50
2022-12-13T04:42:14.445Z,32.10
2022-12-13T04:43:16.273Z,31.50
2022-12-13T04:44:29.126Z,26.89
2022-12-13T04:45:23.115Z,31.20
2022-12-13T04:46:25.133Z,33.00
2022-12-13T04:47:26.961Z,31.56
2022-12-13T04:48:30.837Z,29.22
2022-12-13T04:49:33.252Z,34.70
2022-12-13T04:50:35.357Z,33.70
2022-12-13T04:51:37.446Z,31.20
2022-12-13T04:52:39.357Z,31.70
2022-12-13T04:54:57.378Z,30.60
2022-12-13T04:56:02.336Z,26.56
2022-12-13T04:57:10.206Z,33.70
2022-12-13T04:58:12.148Z,29.90
2022-12-13T04:59:14.225Z,35.44
2022-12-13T05:00:16.451Z,29.70
2022-12-13T05:01:18.410Z,33.78
2022-12-13T05:02:24.146Z,33.89
2022-12-13T05:03:24.006Z,34.90
2022-12-13T05:04:32.144Z,31.00
2022-12-13T05:05:29.674Z,32.30
2022-12-13T05:06:32.134Z,32.50
2022-12-13T05:07:33.951Z,30.30
2022-12-13T05:08:36.702Z,34.33
2022-12-13T05:09:38.669Z,34.27
2022-12-13T05:10:40.594Z,34.78
2022-12-13T05:11:45.453Z,31.00
2022-12-13T05:12:46.191Z,35.70
2022-12-13T05:13:48.061Z,30.78
2022-12-13T05:14:52.493Z,32.22
2022-12-13T05:15:59.537Z,32.50
2022-12-13T05:17:01.855Z,31.70
2022-12-13T05:18:09.793Z,28.10
2022-12-13T05:19:10.234Z,31.90
2022-12-13T05:20:12.424Z,33.60
2022-12-13T05:21:14.164Z,34.22
2022-12-13T05:22:20.263Z,30.44
2022-12-13T05:23:23.166Z,34.00
2022-12-13T05:24:25.259Z,34.50
2022-12-13T05:25:27.264Z,35.30
2022-12-13T05:26:29.455Z,35.20
2022-12-13T05:27:32.085Z,33.90
2022-12-13T05:28:34.284Z,33.90
2022-12-13T05:29:37.585Z,35.30
2022-12-13T05:30:41.035Z,33.50
2022-12-13T05:31:44.254Z,32.20
2022-12-13T05:32:46.410Z,35.90
2022-12-13T05:33:48.548Z,33.90
2022-12-13T05:34:52.807Z,36.30
2022-12-13T05:36:00.016Z,28.30
2022-12-13T05:36:59.719Z,29.00
2022-12-13T05:38:02.317Z,34.80
2022-12-13T05:39:04.299Z,34.20
2022-12-13T05:40:07.951Z,35.20
2022-12-13T05:41:17.126Z,28.70
2022-12-13T05:42:21.463Z,31.60
2022-12-13T05:43:24.086Z,35.70
2022-12-13T05:44:27.987Z,36.20
2022-12-13T05:45:31.962Z,36.33
2022-12-13T05:46:41.315Z,32.40
2022-12-13T05:47:40.217Z,29.20
2022-12-13T05:48:42.298Z,38.36
2022-12-13T05:49:44.315Z,29.50
2022-12-13T05:50:46.777Z,37.56
2022-12-13T05:51:49.119Z,41.60
2022-12-13T05:52:52.150Z,40.50
2022-12-13T05:53:54.131Z,42.20
2022-12-13T05:54:56.058Z,35.44
2022-12-13T05:56:02.252Z,44.30
2022-12-13T05:57:04.124Z,38.70
2022-12-13T05:58:05.858Z,42.33
2022-12-13T05:59:11.545Z,36.90
2022-12-13T06:00:30.197Z,39.55
2022-12-13T06:01:18.665Z,40.80
2022-12-13T06:02:21.852Z,34.90
2022-12-13T06:03:24.088Z,40.60
2022-12-13T06:04:26.055Z,45.00
2022-12-13T06:05:31.323Z,41.22
2022-12-13T06:06:33.355Z,43.40
2022-12-13T06:07:35.767Z,44.00
2022-12-13T06:08:39.418Z,39.80
2022-12-13T06:09:42.430Z,41.70
2022-12-13T06:10:44.544Z,41.20
2022-12-13T06:11:47.021Z,38.80
2022-12-13T06:12:49.509Z,41.10
2022-12-13T06:13:51.611Z,40.10
2022-12-13T06:14:53.336Z,39.11
2022-12-13T06:16:03.322Z,37.70
2022-12-13T06:17:05.280Z,37.80
2022-12-13T06:18:07.089Z,37.44
2022-12-13T06:19:08.755Z,39.22
2022-12-13T06:20:23.157Z,35.22
2022-12-13T06:21:15.589Z,39.50
2022-12-13T06:22:18.030Z,34.22
2022-12-13T06:23:19.963Z,34.20
2022-12-13T06:24:23.207Z,37.67
2022-12-13T06:25:31.064Z,36.09
2022-12-13T06:26:28.994Z,34.30
2022-12-13T06:27:30.752Z,37.89
2022-12-13T06:28:32.690Z,33.78
2022-12-13T06:29:34.830Z,36.11
2022-12-13T06:30:36.750Z,36.20
2022-12-13T10:45:24.210Z,47.70
2022-12-13T10:46:27.427Z,41.00
2022-12-13T10:47:29.496Z,41.09
2022-12-13T10:48:38.470Z,43.56
2022-12-13T10:49:59.018Z,42.90
2022-12-13T10:51:13.091Z,45.90
2022-12-13T10:52:34.127Z,44.50
2022-12-13T10:53:47.357Z,35.90
2022-12-13T10:55:01.587Z,39.30
2022-12-13T10:56:02.662Z,42.40
2022-12-13T10:57:10.077Z,39.80
2022-12-13T10:58:15.707Z,39.60
2022-12-13T10:59:24.766Z,37.80
2022-12-13T11:00:35.542Z,41.70
2022-12-13T11:01:40.091Z,39.80
2022-12-13T11:02:49.294Z,41.40
2022-12-13T11:04:05.148Z,38.40
2022-12-13T11:05:29.528Z,37.80
2022-12-13T11:06:43.944Z,39.90
2022-12-13T11:07:46.428Z,40.80
2022-12-13T11:08:49.764Z,43.60
2022-12-13T11:09:52.617Z,44.00
2022-12-13T11:11:04.264Z,39.50
2022-12-13T11:12:19.090Z,44.80
2022-12-13T11:13:38.108Z,40.90
2022-12-13T11:14:49.428Z,42.40
2022-12-13T11:15:55.333Z,40.10
2022-12-13T11:17:02.023Z,42.60
2022-12-13T11:18:07.678Z,38.20
2022-12-13T11:19:19.418Z,41.30
2022-12-13T11:20:25.121Z,39.90
2022-12-13T11:21:31.216Z,41.80
2022-12-13T11:22:38.503Z,43.50
2022-12-13T11:23:44.830Z,43.80
2022-12-13T11:24:50.261Z,41.20
2022-12-13T11:25:58.445Z,47.50
2022-12-13T11:27:07.027Z,46.30
2022-12-13T11:28:34.991Z,45.50
2022-12-13T11:29:43.017Z,42.90
2022-12-13T11:31:09.722Z,34.30
2022-12-13T11:32:23.853Z,46.60
2022-12-13T11:33:53.610Z,42.70
2022-12-13T11:35:12.092Z,41.80
2022-12-13T11:36:34.396Z,43.00
2022-12-13T11:37:42.444Z,39.40
2022-12-13T11:39:05.051Z,40.70
2022-12-13T11:40:14.799Z,44.40
2022-12-13T11:41:36.246Z,42.90
2022-12-13T11:42:47.854Z,42.30
2022-12-13T11:44:04.350Z,42.50
2022-12-13T11:45:30.862Z,42.90
2022-12-13T11:46:51.726Z,41.00
2022-12-13T11:48:17.242Z,41.10
2022-12-13T11:49:25.714Z,39.30
2022-12-13T11:50:37.578Z,44.30
2022-12-13T11:51:52.704Z,45.50
2022-12-13T11:53:01.249Z,42.20
2022-12-13T11:54:07.419Z,44.00
2022-12-13T11:55:13.403Z,43.10
2022-12-13T11:56:28.138Z,42.50
2022-12-13T11:57:41.066Z,42.40
2022-12-13T11:59:08.578Z,43.70
2022-12-13T12:00:13.020Z,47.50
2022-12-13T12:01:23.421Z,47.60
2022-12-13T12:02:29.061Z,37.70
2022-12-13T12:03:45.184Z,41.90
2022-12-13T12:05:00.789Z,42.00
2022-12-13T12:07:33.253Z,38.40
2022-12-13T12:08:38.785Z,42.10
2022-12-13T12:09:53.007Z,23.60
2022-12-13T12:10:58.987Z,39.50
2022-12-13T12:12:09.022Z,36.40
2022-12-13T12:13:20.004Z,38.80
2022-12-13T12:14:28.799Z,29.60
2022-12-13T12:15:41.469Z,39.30
2022-12-13T12:17:53.800Z,38.40
2022-12-13T12:19:01.463Z,39.80
2022-12-13T12:20:02.635Z,42.80
2022-12-13T12:21:13.963Z,27.60
2022-12-13T12:22:28.854Z,44.10
2022-12-13T12:23:54.199Z,42.30
2022-12-13T12:25:31.452Z,44.40
2022-12-13T12:26:42.767Z,22.90
2022-12-13T12:27:50.621Z,42.10
2022-12-13T12:29:14.046Z,43.60
2022-12-13T12:30:23.419Z,42.40
2022-12-13T12:31:31.265Z,39.80
2022-12-13T12:32:52.478Z,38.80
2022-12-13T12:34:17.678Z,41.80
2022-12-13T12:35:48.059Z,26.90
2022-12-13T12:37:10.614Z,36.70
2022-12-13T12:38:26.170Z,32.30
2022-12-13T12:39:45.701Z,38.70
2022-12-13T12:41:24.788Z,36.30
2022-12-13T12:43:14.328Z,33.50
2022-12-13T12:44:20.826Z,36.80
2022-12-13T12:45:55.285Z,35.30
2022-12-13T12:47:09.929Z,38.10
2022-12-13T12:49:41.685Z,40.70
2022-12-13T12:50:52.371Z,30.80
2022-12-13T12:52:10.616Z,37.80
2022-12-13T12:53:31.455Z,41.20
2022-12-13T12:54:52.306Z,30.00
2022-12-13T12:57:54.834Z,33.80
2022-12-13T12:59:03.831Z,41.10
2022-12-13T13:00:13.611Z,31.10
2022-12-13T13:01:43.948Z,39.70
2022-12-13T13:03:18.866Z,38.50
2022-12-13T13:04:22.635Z,29.40
2022-12-13T13:05:28.372Z,33.70
2022-12-13T13:06:44.336Z,36.80
2022-12-13T13:07:51.535Z,26.60
2022-12-13T13:08:57.474Z,34.80
2022-12-13T13:10:16.433Z,26.90
2022-12-13T13:11:25.099Z,38.50
2022-12-13T13:12:29.654Z,24.90
2022-12-13T13:13:46.507Z,33.10
2022-12-13T13:14:47.772Z,33.40
2022-12-13T13:15:55.342Z,34.22
2022-12-13T13:16:59.277Z,23.90
2022-12-13T13:18:02.756Z,29.10
2022-12-13T13:19:25.372Z,35.70
2022-12-13T13:20:27.676Z,35.80
2022-12-13T13:21:36.388Z,29.00
2022-12-13T13:22:43.417Z,34.90
2022-12-13T13:23:42.658Z,31.90
2022-12-13T13:24:48.265Z,34.11
2022-12-13T13:27:13.820Z,34.20
2022-12-13T13:28:17.549Z,33.20
2022-12-13T13:29:28.551Z,36.10
2022-12-13T13:30:31.830Z,25.60
2022-12-13T13:32:01.864Z,30.09
2022-12-13T13:33:03.056Z,34.60
2022-12-13T13:34:27.286Z,37.20
2022-12-13T13:35:36.184Z,29.60
2022-12-13T13:36:45.596Z,36.20
2022-12-13T13:37:48.334Z,32.20
2022-12-13T13:38:53.128Z,21.20
2022-12-13T13:39:58.272Z,32.30
2022-12-13T13:41:06.456Z,36.30
2022-12-13T13:42:31.093Z,35.50
2022-12-13T13:43:34.442Z,30.70
2022-12-13T13:44:50.257Z,35.40
2022-12-13T13:46:10.350Z,32.10
2022-12-13T13:47:25.403Z,33.20
2022-12-13T13:49:00.223Z,35.00
2022-12-13T13:50:06.401Z,31.10
2022-12-13T13:51:54.862Z,33.10
2022-12-13T13:52:47.279Z,33.30
2022-12-13T13:53:55.854Z,32.50
2022-12-13T13:55:21.029Z,37.40
2022-12-13T13:56:50.464Z,26.50
2022-12-13T13:58:09.801Z,32.20
2022-12-13T13:59:30.375Z,33.20
2022-12-13T14:01:00.435Z,33.20
2022-12-13T14:02:28.829Z,36.20
2022-12-13T14:04:10.020Z,32.60
2022-12-13T14:05:51.328Z,34.90
2022-12-13T14:08:34.675Z,36.50
2022-12-13T14:09:43.048Z,24.80
2022-12-13T14:11:16.879Z,37.10
2022-12-13T14:14:40.135Z,35.40
2022-12-13T14:16:20.625Z,37.70
2022-12-13T14:18:00.767Z,37.00
2022-12-13T14:19:32.681Z,36.80
2022-12-13T14:20:56.955Z,38.20
2022-12-13T14:22:36.258Z,37.90
2022-12-13T14:23:47.565Z,34.30
2022-12-13T14:25:05.789Z,39.20
2022-12-13T14:26:14.615Z,33.30
2022-12-13T14:27:28.654Z,37.40
2022-12-13T14:28:50.978Z,38.50
2022-12-13T14:29:58.408Z,38.30
2022-12-13T14:31:00.537Z,37.60
2022-12-13T14:32:10.588Z,36.20
2022-12-13T14:33:23.503Z,19.00
2022-12-13T14:34:29.707Z,41.70
2022-12-13T14:35:32.557Z,38.80
2022-12-13T18:02:56.439Z,17.80
2022-12-13T18:03:59.496Z,22.80
2022-12-13T18:05:02.671Z,18.36
2022-12-13T18:06:07.158Z,19.20
2022-12-13T18:07:09.470Z,19.60
2022-12-13T18:08:12.012Z,22.20
2022-12-13T18:09:16.171Z,15.20
2022-12-13T18:10:22.528Z,22.90
2022-12-13T18:11:33.776Z,28.10
2022-12-13T18:12:28.817Z,27.30
2022-12-13T18:13:31.051Z,22.00
2022-12-13T18:14:33.632Z,23.40
2022-12-13T18:15:38.073Z,18.10
2022-12-13T18:16:41.601Z,21.10
2022-12-13T18:18:10.039Z,19.22
2022-12-13T18:18:55.212Z,24.30
2022-12-13T18:19:51.503Z,20.70
2022-12-13T18:20:55.548Z,20.30
2022-12-13T18:21:59.260Z,17.60
2022-12-13T18:23:01.352Z,10.20
2022-12-13T18:24:05.308Z,15.44
2022-12-13T18:25:08.524Z,7.80
2022-12-13T18:26:14.466Z,11.20
2022-12-13T18:27:16.582Z,11.70
2022-12-13T18:28:18.601Z,6.40
2022-12-13T18:29:20.593Z,6.44
2022-12-13T18:30:22.549Z,7.67
2022-12-13T18:31:25.041Z,11.67
2022-12-13T18:32:27.805Z,6.00
2022-12-13T18:33:30.883Z,10.40
2022-12-13T18:34:33.415Z,10.30
2022-12-13T18:35:36.531Z,9.80
2022-12-13T18:36:39.793Z,11.45
2022-12-13T18:37:41.708Z,8.80
2022-12-13T18:38:44.913Z,7.56
2022-12-13T18:39:54.510Z,12.10
2022-12-13T18:40:54.985Z,9.00
2022-12-13T18:41:57.980Z,4.50
2022-12-13T18:43:00.456Z,10.18
2022-12-13T18:44:05.223Z,4.70
2022-12-13T18:45:07.562Z,8.50
2022-12-13T18:46:12.239Z,4.70
2022-12-13T18:47:20.831Z,9.10
2022-12-13T18:48:19.493Z,10.10
2022-12-13T18:49:23.039Z,10.10
2022-12-13T18:50:25.841Z,11.90
2022-12-13T18:51:29.250Z,10.18
2022-12-13T18:52:31.679Z,8.20
2022-12-13T18:53:34.612Z,10.60
2022-12-13T18:54:37.790Z,10.82
2022-12-13T18:55:40.066Z,8.91
2022-12-13T18:56:44.849Z,9.09
2022-12-13T18:57:52.024Z,8.00
2022-12-13T18:58:56.134Z,8.70
2022-12-13T18:59:58.969Z,9.40
2022-12-13T19:01:02.385Z,8.27
2022-12-13T19:02:06.139Z,12.50
2022-12-13T19:03:09.566Z,7.20
2022-12-13T19:04:11.517Z,9.50
2022-12-13T19:05:14.709Z,7.89
2022-12-13T19:06:19.744Z,9.50
2022-12-13T19:07:21.926Z,9.00
2022-12-13T19:08:26.921Z,13.70
2022-12-13T19:09:29.629Z,12.10
2022-12-13T19:10:32.572Z,11.82
2022-12-13T19:11:37.196Z,12.82
2022-12-13T19:12:39.938Z,11.50
2022-12-13T19:13:42.093Z,10.27
2022-12-13T19:14:43.854Z,9.10
2022-12-13T19:17:05.744Z,12.10
2022-12-13T19:18:08.218Z,12.90
2022-12-13T19:19:12.785Z,10.20
2022-12-13T19:20:14.849Z,12.40
2022-12-13T19:21:19.761Z,6.90
2022-12-13T19:22:21.818Z,9.20
2022-12-13T19:23:24.141Z,11.11
2022-12-13T19:24:26.419Z,9.70
2022-12-13T19:25:28.628Z,7.56
2022-12-13T19:26:33.528Z,9.40
2022-12-13T19:27:35.944Z,6.70
2022-12-13T19:28:38.614Z,8.00
2022-12-13T19:29:40.623Z,6.60
2022-12-13T19:30:45.318Z,10.70
2022-12-13T19:31:47.990Z,1.40
2022-12-13T19:32:50.402Z,8.20
2022-12-13T19:33:53.317Z,5.80
2022-12-13T19:34:55.694Z,5.00
2022-12-13T19:35:59.698Z,3.00
2022-12-13T19:37:06.249Z,9.20
2022-12-13T19:38:06.217Z,6.10
2022-12-13T19:39:11.539Z,6.90
2022-12-13T19:40:14.586Z,4.70
2022-12-13T19:41:19.508Z,4.64
2022-12-13T19:42:21.395Z,9.50
2022-12-13T19:43:23.244Z,5.00
2022-12-13T19:44:26.249Z,6.44
2022-12-13T19:45:29.027Z,11.45
2022-12-13T19:46:34.698Z,7.90
2022-12-13T19:47:36.597Z,6.90
2022-12-13T19:48:38.856Z,5.00
2022-12-13T19:49:40.801Z,8.30
2022-12-13T19:50:43.030Z,9.22
2022-12-13T19:51:45.418Z,8.00
2022-12-13T19:52:48.226Z,4.60
2022-12-13T19:53:50.681Z,8.00
2022-12-13T19:54:52.657Z,8.10
2022-12-13T19:55:54.580Z,7.89
2022-12-13T19:57:02.463Z,8.80
2022-12-13T19:58:02.429Z,8.20
2022-12-13T19:59:04.533Z,8.50
2022-12-13T20:00:07.972Z,7.00
2022-12-13T20:01:11.505Z,6.60
2022-12-13T20:02:14.800Z,5.90
2022-12-13T20:03:19.014Z,7.70
2022-12-13T20:04:20.893Z,1.40
2022-12-13T20:05:22.820Z,6.67
2022-12-13T20:06:25.173Z,9.00
2022-12-13T20:07:28.270Z,9.50
2022-12-13T20:08:31.019Z,5.70
2022-12-13T20:09:34.493Z,9.36
2022-12-13T20:10:40.060Z,10.50
2022-12-13T20:11:43.096Z,4.90
2022-12-13T20:12:46.813Z,10.82
2022-12-13T20:13:53.558Z,8.50
2022-12-13T20:14:59.219Z,4.90
2022-12-13T20:16:03.597Z,5.90
2022-12-13T20:17:06.911Z,9.20
2022-12-13T20:18:09.189Z,7.80
2022-12-13T20:19:15.924Z,9.80
2022-12-13T20:20:19.738Z,6.90
2022-12-13T20:21:23.060Z,5.60
2022-12-13T20:22:25.500Z,5.20
2022-12-13T20:23:27.545Z,8.80
2022-12-13T20:24:33.719Z,8.20
2022-12-13T20:25:36.228Z,9.60
2022-12-13T20:26:40.561Z,5.27
2022-12-13T20:27:42.541Z,10.50
2022-12-13T20:28:46.445Z,7.78
2022-12-13T20:29:49.519Z,8.00
2022-12-13T20:30:52.468Z,9.60
2022-12-13T20:31:54.209Z,14.70
2022-12-13T20:32:57.603Z,10.33
2022-12-13T20:34:02.952Z,9.80
2022-12-13T20:35:06.846Z,11.90
2022-12-13T20:36:24.182Z,15.00
2022-12-13T20:37:20.575Z,8.90
2022-12-13T20:38:23.663Z,8.30
2022-12-13T20:39:27.855Z,9.60
2022-12-13T20:40:29.983Z,14.00
2022-12-13T20:41:34.304Z,7.11
2022-12-13T20:42:37.411Z,7.70
2022-12-13T20:43:41.015Z,11.18
2022-12-13T20:44:44.242Z,8.30
2022-12-13T20:45:46.161Z,7.30
2022-12-13T20:46:50.840Z,9.00
2022-12-13T20:47:55.361Z,6.10
2022-12-13T20:48:59.895Z,10.44
2022-12-13T20:50:01.711Z,4.00
2022-12-13T20:51:06.803Z,8.78
2022-12-13T20:52:15.351Z,10.10
2022-12-13T20:53:18.514Z,9.80
2022-12-13T20:54:26.062Z,13.10
2022-12-13T20:55:28.458Z,8.40
2022-12-13T20:56:34.261Z,12.40
2022-12-13T20:57:36.656Z,13.80
2022-12-13T20:58:40.403Z,9.70
2022-12-13T20:59:43.859Z,11.70
2022-12-13T21:00:47.673Z,12.10
2022-12-13T21:01:50.267Z,8.80
2022-12-13T21:02:52.452Z,7.70
2022-12-13T21:03:56.376Z,11.10
2022-12-13T21:04:58.720Z,10.70
2022-12-13T21:06:01.015Z,12.60
2022-12-13T21:07:03.037Z,15.50
2022-12-13T21:08:06.856Z,14.67
2022-12-13T21:09:10.541Z,10.70
2022-12-13T21:10:13.910Z,13.00
2022-12-13T21:11:18.869Z,11.30
2022-12-13T21:12:21.690Z,16.20
2022-12-13T21:13:24.392Z,15.55
2022-12-13T21:14:28.203Z,20.91
2022-12-13T21:15:29.953Z,10.90
2022-12-13T21:16:35.082Z,12.89
2022-12-13T21:17:37.601Z,13.10
2022-12-13T21:18:39.852Z,13.20
2022-12-13T21:19:41.667Z,13.10
2022-12-13T21:20:46.560Z,12.00
2022-12-13T21:21:49.413Z,13.20
2022-12-13T21:22:51.606Z,6.20
2022-12-13T21:23:54.921Z,12.80
2022-12-13T21:24:56.774Z,11.80
2022-12-13T21:25:59.631Z,4.44
2022-12-13T21:27:04.817Z,11.10
2022-12-13T21:28:06.792Z,15.90
2022-12-13T21:29:10.202Z,13.33
2022-12-13T21:30:14.456Z,12.80
2022-12-13T21:31:18.571Z,4.80
2022-12-13T21:32:21.148Z,11.40
2022-12-13T21:33:22.930Z,5.00
2022-12-13T21:34:25.281Z,16.00
2022-12-13T21:35:28.075Z,8.80
2022-12-13T21:36:36.934Z,7.10
2022-12-13T21:37:39.166Z,12.60
2022-12-13T21:38:41.779Z,10.90
2022-12-13T21:39:44.604Z,12.50
2022-12-13T21:40:50.796Z,14.80
2022-12-13T21:41:53.037Z,15.40
2022-12-13T21:42:54.812Z,10.80
2022-12-13T21:43:57.745Z,11.22
2022-12-13T21:45:02.321Z,8.73
2022-12-13T21:46:11.037Z,14.00
2022-12-13T21:47:13.987Z,12.20
2022-12-13T21:48:16.985Z,9.64
2022-12-13T21:49:18.954Z,10.27
2022-12-13T21:50:24.949Z,9.80
2022-12-13T21:51:29.355Z,12.10
2022-12-13T21:52:32.956Z,13.00
2022-12-13T21:53:37.838Z,11.50
2022-12-13T21:54:43.844Z,8.70
2022-12-13T21:55:45.806Z,7.00
2022-12-13T21:56:50.495Z,3.70
2022-12-13T21:57:57.078Z,12.80
2022-12-13T21:59:00.164Z,9.10
2022-12-13T22:00:02.335Z,11.73
2022-12-13T22:01:04.254Z,8.40
2022-12-13T22:02:16.958Z,9.27
2022-12-13T22:03:20.842Z,8.10
2022-12-13T22:04:24.192Z,8.40
2022-12-13T22:05:27.430Z,7.30
2022-12-13T22:06:29.230Z,7.00
2022-12-13T22:07:34.568Z,10.67
2022-12-13T22:08:36.745Z,10.10
2022-12-13T22:09:39.546Z,8.70
2022-12-13T22:10:45.734Z,10.50
2022-12-13T22:11:47.958Z,9.50
2022-12-13T22:12:50.409Z,13.22
2022-12-13T22:13:52.480Z,8.30
2022-12-13T22:14:55.150Z,11.11
2022-12-13T22:15:57.891Z,10.73
2022-12-13T22:17:04.464Z,8.70
2022-12-13T22:18:15.271Z,10.50
2022-12-13T22:19:18.212Z,8.70
2022-12-13T22:20:20.118Z,8.60
2022-12-13T22:21:23.449Z,6.44
2022-12-13T22:22:25.318Z,11.30
2022-12-13T22:23:27.595Z,9.60
2022-12-13T22:24:33.292Z,6.89
2022-12-13T22:25:38.982Z,10.60
2022-12-13T22:26:41.543Z,11.70
2022-12-13T22:27:43.699Z,12.56
2022-12-13T22:28:45.603Z,9.10
2022-12-13T22:29:48.430Z,6.33
2022-12-13T22:30:53.479Z,5.80
2022-12-13T22:31:56.412Z,11.20
2022-12-13T22:32:58.379Z,10.10
2022-12-13T22:34:00.082Z,9.22
2022-12-13T22:35:02.006Z,11.11
2022-12-13T22:36:03.964Z,10.78
2022-12-13T22:37:06.219Z,8.89
2022-12-13T22:38:07.911Z,13.40
2022-12-13T22:39:21.897Z,6.89
2022-12-13T22:40:23.815Z,9.30
2022-12-13T22:41:26.404Z,7.11
2022-12-13T22:42:28.086Z,10.50
2022-12-13T22:43:34.343Z,13.33
2022-12-13T22:44:36.156Z,10.80
2022-12-13T22:45:38.053Z,11.22
2022-12-13T22:46:41.870Z,12.00
2022-12-13T22:47:43.778Z,11.70
2022-12-13T22:48:45.917Z,10.44
2022-12-13T22:49:48.911Z,9.90
2022-12-13T22:51:04.358Z,9.80
2022-12-13T22:52:07.653Z,11.70
2022-12-13T22:53:10.308Z,12.00
2022-12-13T22:54:12.293Z,5.40
2022-12-13T22:55:13.919Z,12.78
2022-12-13T22:56:19.184Z,12.44
2022-12-13T22:57:20.996Z,13.80
2022-12-13T22:58:23.581Z,7.89
2022-12-13T22:59:26.654Z,12.50
2022-12-13T23:00:29.267Z,12.10
2022-12-13T23:01:33.549Z,10.10
2022-12-13T23:02:36.673Z,9.70
2022-12-13T23:03:40.631Z,12.20
2022-12-13T23:04:43.575Z,13.50
2022-12-13T23:05:45.285Z,12.67
2022-12-13T23:06:47.144Z,11.89
2022-12-13T23:07:49.304Z,11.56
2022-12-13T23:08:54.109Z,13.30
2022-12-13T23:09:56.954Z,12.20
2022-12-13T23:11:00.121Z,12.91
2022-12-13T23:12:12.371Z,14.60
2022-12-13T23:13:19.168Z,12.70
2022-12-13T23:14:31.152Z,13.20
2022-12-13T23:15:36.475Z,8.00
2022-12-13T23:16:40.101Z,15.20
2022-12-13T23:17:42.074Z,15.30
2022-12-13T23:18:47.045Z,11.78
2022-12-13T23:19:53.114Z,12.80
2022-12-13T23:20:53.147Z,15.60
2022-12-13T23:22:00.239Z,12.33
2022-12-13T23:23:06.010Z,12.20
2022-12-13T23:24:12.892Z,11.40
2022-12-13T23:25:15.424Z,10.50
2022-12-13T23:26:19.942Z,10.50
2022-12-13T23:27:24.585Z,2.10
2022-12-13T23:28:26.887Z,16.00
2022-12-13T23:29:30.053Z,8.50
2022-12-13T23:30:32.432Z,10.10
2022-12-13T23:31:37.828Z,13.00
2022-12-13T23:32:39.687Z,12.40
2022-12-13T23:33:41.706Z,14.00
2022-12-13T23:34:43.546Z,13.33
2022-12-13T23:35:45.733Z,15.22
2022-12-13T23:36:47.837Z,14.70
2022-12-13T23:37:50.560Z,16.22
2022-12-13T23:38:53.201Z,21.50
2022-12-13T23:40:07.499Z,11.90
2022-12-13T23:41:20.326Z,13.20
2022-12-13T23:42:20.815Z,15.30
2022-12-13T23:43:23.791Z,13.73
2022-12-13T23:44:26.511Z,9.90
2022-12-13T23:45:28.231Z,16.60
2022-12-13T23:46:33.513Z,12.22
2022-12-13T23:47:36.345Z,16.10
2022-12-13T23:48:38.448Z,10.30
2022-12-13T23:49:40.888Z,14.80
2022-12-13T23:50:42.687Z,14.90
2022-12-13T23:51:45.129Z,16.78
2022-12-13T23:52:48.122Z,15.10
2022-12-13T23:53:50.067Z,13.27
2022-12-13T23:54:52.983Z,12.78
2022-12-13T23:55:55.799Z,8.91
2022-12-13T23:56:58.449Z,17.50
2022-12-13T23:58:00.516Z,8.90
2022-12-13T23:59:02.686Z,19.44
